Time;durP1;ratioP1;P1;durP2;ratioP2;P2;SDS_P1;SDS_P2;PMS_P1;PMS_P2;Temp;Humidity;BMP_temperature;BMP_pressure;BME280_temperature;BME280_humidity;BME280_pressure;Samples;Min_cycle;Max_cycle;Signal;HPM_P1;HPM_P2
2021/03/24 00:00:59;;;;;;;43.53;31.80;;;5.50;99.90;;;;;;2082444;28;20041;-79
2021/03/24 00:02:00;;;;;;;36.85;28.27;;;5.50;99.90;;;;;;2085344;28;20473;-81
2021/03/24 00:03:01;;;;;;;40.63;30.50;;;5.50;99.90;;;;;;2081777;28;20049;-81
2021/03/24 00:04:01;;;;;;;45.38;33.13;;;5.50;99.90;;;;;;2080811;28;20128;-80
2021/03/24 00:05:09;;;;;;;41.30;31.75;;;5.40;99.90;;;;;;2078789;28;20025;-80
2021/03/24 00:06:11;;;;;;;41.65;29.15;;;5.40;99.90;;;;;;2087717;28;20025;-80
2021/03/24 00:07:12;;;;;;;39.20;30.70;;;5.40;99.90;;;;;;2093809;28;20070;-81
2021/03/24 00:08:12;;;;;;;43.85;31.05;;;5.40;99.90;;;;;;2085154;28;20516;-80
2021/03/24 00:09:16;;;;;;;39.03;29.75;;;5.40;99.90;;;;;;2079966;28;20398;-80
2021/03/24 00:10:16;;;;;;;39.33;29.38;;;5.40;99.90;;;;;;2072519;28;20080;-81
2021/03/24 00:11:17;;;;;;;42.42;28.45;;;5.40;99.90;;;;;;2078155;28;20024;-80
2021/03/24 00:12:18;;;;;;;37.70;28.58;;;5.30;99.90;;;;;;2083553;28;20022;-79
2021/03/24 00:13:19;;;;;;;40.85;31.30;;;5.30;99.90;;;;;;2086351;28;20084;-80
2021/03/24 00:14:19;;;;;;;43.38;31.92;;;5.30;99.90;;;;;;2085490;28;20104;-80
2021/03/24 00:15:21;;;;;;;40.83;29.45;;;5.30;99.90;;;;;;2082159;28;20371;-81
2021/03/24 00:16:22;;;;;;;40.85;29.92;;;5.30;99.90;;;;;;2080827;28;20379;-82
2021/03/24 00:17:22;;;;;;;40.55;30.65;;;5.30;99.90;;;;;;2088209;28;20036;-80
2021/03/24 00:18:23;;;;;;;40.75;30.73;;;5.30;99.90;;;;;;2080827;28;20036;-80
2021/03/24 00:19:24;;;;;;;41.75;31.50;;;5.30;99.90;;;;;;2076836;28;20413;-80
2021/03/24 00:20:28;;;;;;;39.00;30.70;;;5.20;99.90;;;;;;2085414;28;20024;-82
2021/03/24 00:21:29;;;;;;;50.33;34.13;;;5.20;99.90;;;;;;2080338;28;20517;-80
2021/03/24 00:22:30;;;;;;;45.92;33.97;;;5.20;99.90;;;;;;2076370;28;20033;-80
2021/03/24 00:23:30;;;;;;;41.67;29.92;;;5.20;99.90;;;;;;2089192;28;20021;-80
2021/03/24 00:24:31;;;;;;;38.60;29.95;;;5.20;99.90;;;;;;2090540;28;20029;-80
2021/03/24 00:25:32;;;;;;;41.72;30.58;;;5.20;99.90;;;;;;2079865;28;20474;-79
2021/03/24 00:26:33;;;;;;;45.55;34.28;;;5.20;99.90;;;;;;2080507;28;20034;-79
2021/03/24 00:27:34;;;;;;;42.58;31.60;;;5.20;99.90;;;;;;2080022;28;20063;-79
2021/03/24 00:28:35;;;;;;;42.55;31.52;;;5.10;99.90;;;;;;2074707;28;20410;-80
2021/03/24 00:29:35;;;;;;;37.33;29.25;;;5.10;99.90;;;;;;2079614;28;20036;-79
2021/03/24 00:30:40;;;;;;;44.00;33.40;;;5.10;99.90;;;;;;2088563;28;20032;-79
2021/03/24 00:31:40;;;;;;;46.78;32.55;;;5.10;99.90;;;;;;2080089;28;20025;-79
2021/03/24 00:32:42;;;;;;;48.67;36.15;;;5.10;99.90;;;;;;2079286;28;20041;-79
2021/03/24 00:33:43;;;;;;;41.28;31.67;;;5.10;99.90;;;;;;2078864;28;20021;-79
2021/03/24 00:34:44;;;;;;;47.30;32.97;;;5.10;99.90;;;;;;2080611;28;20405;-79
2021/03/24 00:35:45;;;;;;;46.97;33.13;;;5.10;99.90;;;;;;2076649;28;20028;-79
2021/03/24 00:36:46;;;;;;;48.58;35.47;;;5.10;99.90;;;;;;2087728;28;20078;-79
2021/03/24 00:37:46;;;;;;;47.35;34.35;;;5.10;99.90;;;;;;2087701;28;20029;-80
2021/03/24 00:38:47;;;;;;;47.13;35.08;;;5.00;99.90;;;;;;2080516;28;20366;-78
2021/03/24 00:39:48;;;;;;;45.65;33.10;;;5.00;99.90;;;;;;2080231;28;20547;-79
2021/03/24 00:40:52;;;;;;;42.28;31.02;;;5.00;99.90;;;;;;2087898;28;20112;-79
2021/03/24 00:41:52;;;;;;;42.58;31.95;;;5.00;99.90;;;;;;2092676;28;20030;-79
2021/03/24 00:42:53;;;;;;;39.88;31.02;;;5.00;99.90;;;;;;2074878;28;20579;-79
2021/03/24 00:43:53;;;;;;;47.10;32.78;;;5.00;99.90;;;;;;2077807;28;20121;-79
2021/03/24 00:44:54;;;;;;;43.80;31.30;;;5.00;99.90;;;;;;2088510;28;20083;-78
2021/03/24 00:45:55;;;;;;;41.00;31.08;;;5.00;99.90;;;;;;2082642;28;20025;-80
2021/03/24 00:46:57;;;;;;;47.50;35.17;;;5.00;99.90;;;;;;2080137;28;20107;-78
2021/03/24 00:47:59;;;;;;;43.63;32.25;;;5.00;99.90;;;;;;2077487;28;20031;-79
2021/03/24 00:48:59;;;;;;;43.63;32.58;;;5.00;99.90;;;;;;2076028;28;20152;-78
2021/03/24 00:50:01;;;;;;;43.83;33.70;;;4.90;99.90;;;;;;2076800;28;20103;-78
2021/03/24 00:51:03;;;;;;;47.45;34.47;;;4.90;99.90;;;;;;2088384;28;20147;-79
2021/03/24 00:52:04;;;;;;;46.53;33.42;;;4.90;99.90;;;;;;2086962;28;20055;-78
2021/03/24 00:53:05;;;;;;;45.38;32.65;;;4.90;99.90;;;;;;2079579;28;20032;-79
2021/03/24 00:54:06;;;;;;;43.58;31.92;;;4.90;99.90;;;;;;2080123;28;20489;-79
2021/03/24 00:55:07;;;;;;;49.35;33.80;;;4.90;99.90;;;;;;2088252;28;20535;-80
2021/03/24 00:56:07;;;;;;;44.95;32.58;;;4.90;99.90;;;;;;2080227;28;20026;-80
2021/03/24 00:57:08;;;;;;;49.10;36.08;;;4.80;99.90;;;;;;2083704;28;20365;-78
2021/03/24 00:58:09;;;;;;;41.10;31.58;;;4.80;99.90;;;;;;2087923;28;20116;-79
2021/03/24 00:59:10;;;;;;;43.05;31.52;;;4.80;99.90;;;;;;2076133;28;20036;-79
2021/03/24 01:00:21;;;;;;;50.28;35.95;;;4.80;99.90;;;;;;2077277;28;20140;-80
2021/03/24 01:01:22;;;;;;;48.83;36.10;;;4.80;99.90;;;;;;2075625;28;20065;-79
2021/03/24 01:02:23;;;;;;;41.65;30.83;;;4.80;99.90;;;;;;2086729;28;20625;-80
2021/03/24 01:03:23;;;;;;;48.83;35.40;;;4.80;99.90;;;;;;2084519;28;20028;-81
2021/03/24 01:04:24;;;;;;;41.90;29.83;;;4.80;99.90;;;;;;2080859;28;20163;-79
2021/03/24 01:05:25;;;;;;;46.60;34.72;;;4.80;99.90;;;;;;2088965;28;20021;-79
2021/03/24 01:06:26;;;;;;;46.83;34.75;;;4.80;99.90;;;;;;2086784;28;20056;-80
2021/03/24 01:07:26;;;;;;;50.78;37.53;;;4.70;99.90;;;;;;2073846;28;20506;-80
2021/03/24 01:08:27;;;;;;;43.40;32.80;;;4.70;99.90;;;;;;2078502;28;20025;-81
2021/03/24 01:09:28;;;;;;;45.05;33.65;;;4.80;99.90;;;;;;2081809;28;20033;-80
2021/03/24 01:10:31;;;;;;;39.72;30.38;;;4.70;99.90;;;;;;2080957;28;20140;-80
2021/03/24 01:11:32;;;;;;;48.63;34.60;;;4.70;99.90;;;;;;2087859;28;20314;-80
2021/03/24 01:12:33;;;;;;;48.33;32.95;;;4.70;99.90;;;;;;2088354;28;20567;-80
2021/03/24 01:13:33;;;;;;;46.45;32.95;;;4.70;99.90;;;;;;2080446;28;20025;-80
2021/03/24 01:14:34;;;;;;;50.38;37.08;;;4.70;99.90;;;;;;2077114;28;20075;-81
2021/03/24 01:15:35;;;;;;;47.45;36.15;;;4.70;99.90;;;;;;2088504;28;20036;-79
2021/03/24 01:16:36;;;;;;;42.75;31.40;;;4.70;99.90;;;;;;2089124;28;20194;-79
2021/03/24 01:17:37;;;;;;;46.83;35.67;;;4.70;99.90;;;;;;2076900;28;20029;-79
2021/03/24 01:18:38;;;;;;;40.15;29.52;;;4.60;99.90;;;;;;2082139;28;20025;-80
2021/03/24 01:19:38;;;;;;;49.78;35.25;;;4.60;99.90;;;;;;2088669;28;20025;-80
2021/03/24 01:20:40;;;;;;;57.60;36.95;;;4.70;99.90;;;;;;2087798;28;20025;-79
2021/03/24 01:21:41;;;;;;;43.42;32.30;;;4.60;99.90;;;;;;2080226;28;20017;-80
2021/03/24 01:22:42;;;;;;;43.92;33.28;;;4.60;99.90;;;;;;2080990;28;20462;-79
2021/03/24 01:23:42;;;;;;;46.30;34.35;;;4.60;99.90;;;;;;2084565;28;20110;-81
2021/03/24 01:24:43;;;;;;;49.13;37.03;;;4.60;99.90;;;;;;2080062;28;20027;-80
2021/03/24 01:25:44;;;;;;;47.10;35.15;;;4.60;99.90;;;;;;2077820;28;20036;-80
2021/03/24 01:26:44;;;;;;;49.60;35.05;;;4.60;99.90;;;;;;2077265;28;20053;-81
2021/03/24 01:27:45;;;;;;;46.15;34.35;;;4.60;99.90;;;;;;2086512;28;20049;-79
2021/03/24 01:28:57;;;;;;;44.50;33.83;;;4.60;99.90;;;;;;2086792;28;20025;-80
2021/03/24 01:29:58;;;;;;;49.22;35.28;;;4.60;99.90;;;;;;2084287;28;20145;-80
2021/03/24 01:31:01;;;;;;;46.45;32.95;;;4.60;99.90;;;;;;2083962;28;20436;-79
2021/03/24 01:32:01;;;;;;;46.88;33.13;;;4.60;99.90;;;;;;2080336;28;20260;-80
2021/03/24 01:33:02;;;;;;;42.78;32.33;;;4.60;99.90;;;;;;2080586;28;20561;-80
2021/03/24 01:34:03;;;;;;;45.72;33.30;;;4.60;99.90;;;;;;2079610;28;20098;-79
2021/03/24 01:35:08;;;;;;;44.08;33.53;;;4.60;99.90;;;;;;2079855;28;20024;-79
2021/03/24 01:36:09;;;;;;;50.78;37.72;;;4.50;99.90;;;;;;2083515;28;20045;-81
2021/03/24 01:37:10;;;;;;;44.45;32.22;;;4.50;99.90;;;;;;2083643;28;20552;-80
2021/03/24 01:38:10;;;;;;;46.95;34.97;;;4.50;99.90;;;;;;2077979;28;20025;-79
2021/03/24 01:39:11;;;;;;;45.25;34.20;;;4.50;99.90;;;;;;2079789;28;20021;-80
2021/03/24 01:40:27;;;;;;;49.45;37.90;;;4.50;99.90;;;;;;2080539;28;20026;-81
2021/03/24 01:41:28;;;;;;;44.42;33.75;;;4.50;99.90;;;;;;2089397;28;20571;-82
2021/03/24 01:42:28;;;;;;;43.95;32.00;;;4.50;99.90;;;;;;2084555;28;20021;-80
2021/03/24 01:43:35;;;;;;;48.20;33.90;;;4.40;99.90;;;;;;2078084;28;20071;-79
2021/03/24 01:45:03;;;;;;;48.17;34.30;;;4.50;99.90;;;;;;2073006;28;20470;-81
2021/03/24 01:46:19;;;;;;;47.60;34.63;;;4.40;99.90;;;;;;2086412;28;20024;-81
2021/03/24 01:47:19;;;;;;;51.58;36.45;;;4.40;99.90;;;;;;2081011;28;20025;-81
2021/03/24 01:48:20;;;;;;;48.05;34.05;;;4.40;99.90;;;;;;2079078;28;20086;-81
2021/03/24 01:49:34;;;;;;;58.97;39.17;;;4.40;99.90;;;;;;2087418;28;20019;-81
2021/03/24 01:50:39;;;;;;;45.40;33.15;;;4.40;99.90;;;;;;2082611;28;20036;-81
2021/03/24 01:51:42;;;;;;;44.67;33.60;;;4.40;99.90;;;;;;2074516;28;20532;-81
2021/03/24 01:52:44;;;;;;;51.00;36.95;;;4.40;99.90;;;;;;2079601;28;20021;-80
2021/03/24 01:53:45;;;;;;;46.67;34.55;;;4.40;99.90;;;;;;2079613;28;20182;-80
2021/03/24 01:54:46;;;;;;;48.75;35.20;;;4.40;99.90;;;;;;2080045;28;20606;-82
2021/03/24 01:55:46;;;;;;;45.00;33.08;;;4.40;99.90;;;;;;2080162;28;20563;-82
2021/03/24 01:56:51;;;;;;;49.05;36.30;;;4.30;99.90;;;;;;2080646;28;20021;-81
2021/03/24 01:57:53;;;;;;;45.40;33.65;;;4.40;99.90;;;;;;2089029;28;20025;-80
2021/03/24 01:58:55;;;;;;;54.13;37.67;;;4.30;99.90;;;;;;2082759;28;20109;-80
2021/03/24 01:59:55;;;;;;;52.47;37.65;;;4.40;99.90;;;;;;2075210;28;20390;-80
2021/03/24 02:00:56;;;;;;;50.67;37.92;;;4.30;99.90;;;;;;2082541;28;20022;-79
2021/03/24 02:01:58;;;;;;;47.75;36.53;;;4.30;99.90;;;;;;2080148;28;20021;-79
2021/03/24 02:02:59;;;;;;;46.28;34.20;;;4.30;99.90;;;;;;2079674;28;20121;-79
2021/03/24 02:04:00;;;;;;;46.17;34.40;;;4.30;99.90;;;;;;2079024;28;20130;-80
2021/03/24 02:05:00;;;;;;;47.03;34.72;;;4.30;99.90;;;;;;2082786;28;20092;-80
2021/03/24 02:06:10;;;;;;;58.53;38.28;;;4.30;99.90;;;;;;2089287;28;20032;-80
2021/03/24 02:07:30;;;;;;;51.58;36.20;;;4.30;99.90;;;;;;2080110;28;20057;-79
2021/03/24 02:08:36;;;;;;;51.70;37.67;;;4.30;99.90;;;;;;2084470;28;20084;-79
2021/03/24 02:09:43;;;;;;;52.88;35.95;;;4.30;99.90;;;;;;2083033;28;20055;-79
2021/03/24 02:11:09;;;;;;;44.33;33.70;;;4.20;99.90;;;;;;2076393;28;20430;-79
2021/03/24 02:12:42;;;;;;;46.45;33.30;;;4.20;99.90;;;;;;2080911;28;20040;-80
2021/03/24 02:13:52;;;;;;;48.03;35.15;;;4.20;99.90;;;;;;2085764;28;20025;-79
2021/03/24 02:15:01;;;;;;;50.53;35.90;;;4.20;99.90;;;;;;2082626;28;20068;-80
2021/03/24 02:16:19;;;;;;;48.20;34.05;;;4.20;99.90;;;;;;2076607;28;20257;-79
2021/03/24 02:17:23;;;;;;;52.35;38.55;;;4.20;99.90;;;;;;2080692;28;20109;-80
2021/03/24 02:18:26;;;;;;;60.10;40.78;;;4.10;99.90;;;;;;2083083;28;20034;-80
2021/03/24 02:19:52;;;;;;;52.70;38.15;;;4.20;99.90;;;;;;2083870;28;20037;-80
2021/03/24 02:21:15;;;;;;;48.60;35.70;;;4.10;99.90;;;;;;2081315;28;20748;-80
2021/03/24 02:22:22;;;;;;;52.67;38.67;;;4.20;99.90;;;;;;2083300;28;20560;-80
2021/03/24 02:23:54;;;;;;;53.30;38.75;;;4.10;99.90;;;;;;2092819;28;20017;-80
2021/03/24 02:25:07;;;;;;;41.45;30.25;;;4.10;99.90;;;;;;2078078;28;20113;-80
2021/03/24 02:26:32;;;;;;;53.03;36.97;;;4.10;99.90;;;;;;2085551;28;20022;-80
2021/03/24 02:27:36;;;;;;;47.42;33.08;;;4.10;99.90;;;;;;2086384;28;20047;-80
2021/03/24 02:28:38;;;;;;;54.13;40.10;;;4.10;99.90;;;;;;2081947;28;20021;-80
2021/03/24 02:29:43;;;;;;;50.85;36.72;;;4.10;99.90;;;;;;2080696;28;20021;-80
2021/03/24 02:30:46;;;;;;;53.83;37.40;;;4.10;99.90;;;;;;2084278;28;20071;-80
2021/03/24 02:31:48;;;;;;;52.92;37.78;;;4.10;99.90;;;;;;2080286;28;20036;-79
2021/03/24 02:32:57;;;;;;;53.25;38.20;;;4.10;99.90;;;;;;2078532;28;20017;-80
2021/03/24 02:34:02;;;;;;;52.45;38.05;;;4.00;99.90;;;;;;2078523;28;20519;-80
2021/03/24 02:35:09;;;;;;;53.38;36.70;;;4.10;99.90;;;;;;2075649;28;20130;-80
2021/03/24 02:36:15;;;;;;;49.42;35.20;;;4.10;99.90;;;;;;2088218;28;20041;-81
2021/03/24 02:37:18;;;;;;;51.08;36.35;;;4.10;99.90;;;;;;2084644;28;20120;-80
2021/03/24 02:38:22;;;;;;;55.28;38.42;;;4.10;99.90;;;;;;2077205;28;20018;-80
2021/03/24 02:39:26;;;;;;;50.72;36.83;;;4.10;99.90;;;;;;2087269;28;20017;-79
2021/03/24 02:40:29;;;;;;;48.03;35.40;;;4.10;99.90;;;;;;2089821;28;20033;-80
2021/03/24 02:41:30;;;;;;;51.33;36.13;;;4.10;99.90;;;;;;2086347;28;20033;-80
2021/03/24 02:42:31;;;;;;;47.25;34.20;;;4.10;99.90;;;;;;2080177;28;20025;-80
2021/03/24 02:43:34;;;;;;;49.67;37.10;;;4.10;99.90;;;;;;2077038;28;20549;-80
2021/03/24 02:44:36;;;;;;;47.97;34.67;;;4.10;99.90;;;;;;2087624;28;20457;-80
2021/03/24 02:45:43;;;;;;;42.38;31.63;;;4.10;99.90;;;;;;2082513;28;20025;-79
2021/03/24 02:46:45;;;;;;;49.50;34.08;;;4.10;99.90;;;;;;2079482;28;20425;-78
2021/03/24 02:47:47;;;;;;;48.55;37.58;;;4.10;99.90;;;;;;2081441;28;20470;-80
2021/03/24 02:48:48;;;;;;;47.55;34.58;;;4.00;99.90;;;;;;2081397;28;20030;-79
2021/03/24 02:49:50;;;;;;;50.03;36.08;;;4.10;99.90;;;;;;2074900;28;20033;-80
2021/03/24 02:50:53;;;;;;;47.65;36.00;;;4.10;99.90;;;;;;2079134;28;20639;-80
2021/03/24 02:51:54;;;;;;;50.47;36.33;;;4.10;99.90;;;;;;2080112;28;20233;-78
2021/03/24 02:52:57;;;;;;;42.95;34.05;;;4.00;99.90;;;;;;2081469;28;20029;-80
2021/03/24 02:53:58;;;;;;;49.08;37.05;;;4.10;99.90;;;;;;2082567;28;20036;-80
2021/03/24 02:54:59;;;;;;;41.90;33.60;;;4.00;99.90;;;;;;2081645;28;20037;-80
2021/03/24 02:56:04;;;;;;;45.88;33.65;;;4.00;99.90;;;;;;2076972;28;20025;-79
2021/03/24 02:57:05;;;;;;;46.60;35.97;;;4.00;99.90;;;;;;2078180;28;20033;-80
2021/03/24 02:58:06;;;;;;;51.10;36.92;;;4.00;99.90;;;;;;2074559;28;20567;-78
2021/03/24 02:59:08;;;;;;;49.00;34.78;;;4.00;99.90;;;;;;2074803;28;20079;-80
2021/03/24 03:00:14;;;;;;;49.42;35.67;;;4.00;99.90;;;;;;2082707;28;20028;-78
2021/03/24 03:01:28;;;;;;;51.80;37.70;;;4.00;99.90;;;;;;2084715;28;20596;-80
2021/03/24 03:02:29;;;;;;;42.95;33.00;;;4.00;99.90;;;;;;2080816;28;20061;-79
2021/03/24 03:03:36;;;;;;;50.35;34.20;;;3.90;99.90;;;;;;2081780;28;20042;-78
2021/03/24 03:04:47;;;;;;;39.88;31.17;;;4.00;99.90;;;;;;2086235;28;20040;-79
2021/03/24 03:05:50;;;;;;;49.22;33.97;;;3.90;99.90;;;;;;2082943;28;20494;-79
2021/03/24 03:06:56;;;;;;;48.80;35.60;;;4.00;99.90;;;;;;2082765;28;20108;-79
2021/03/24 03:08:41;;;;;;;50.35;34.80;;;4.00;99.90;;;;;;2088051;28;20390;-78
2021/03/24 03:09:51;;;;;;;44.63;33.78;;;3.90;99.90;;;;;;2082618;28;20029;-79
2021/03/24 03:11:03;;;;;;;46.20;33.65;;;3.90;99.90;;;;;;2086287;28;20029;-79
2021/03/24 03:12:12;;;;;;;47.03;33.83;;;3.90;99.90;;;;;;2079065;28;20460;-79
2021/03/24 03:13:16;;;;;;;47.42;35.90;;;3.90;99.90;;;;;;2082748;28;20078;-80
2021/03/24 03:14:40;;;;;;;41.58;32.33;;;3.80;99.90;;;;;;2079462;28;20061;-79
2021/03/24 03:16:24;;;;;;;44.83;33.08;;;3.80;99.90;;;;;;2084326;28;20120;-79
2021/03/24 03:17:38;;;;;;;46.83;34.40;;;3.80;99.90;;;;;;2079210;28;20591;-79
2021/03/24 03:19:01;;;;;;;46.08;34.08;;;3.80;99.90;;;;;;2082228;28;20033;-80
2021/03/24 03:20:08;;;;;;;47.17;35.05;;;3.80;99.90;;;;;;2086808;28;20078;-79
2021/03/24 03:21:14;;;;;;;47.08;34.65;;;3.70;99.90;;;;;;2085169;28;20017;-80
2021/03/24 03:22:21;;;;;;;51.88;35.88;;;3.80;99.90;;;;;;2089244;28;20132;-79
2021/03/24 03:23:26;;;;;;;56.58;36.70;;;3.80;99.90;;;;;;2094269;28;20017;-80
2021/03/24 03:24:36;;;;;;;48.70;36.70;;;3.70;99.90;;;;;;2082790;28;20532;-80
2021/03/24 03:25:43;;;;;;;48.25;35.85;;;3.70;99.90;;;;;;2087708;28;20477;-78
2021/03/24 03:26:45;;;;;;;49.58;36.45;;;3.70;99.90;;;;;;2086192;28;20487;-79
2021/03/24 03:27:48;;;;;;;41.83;32.60;;;3.70;99.90;;;;;;2080484;28;20116;-78
2021/03/24 03:28:56;;;;;;;41.17;30.92;;;3.70;99.90;;;;;;2074827;28;20030;-78
2021/03/24 03:29:59;;;;;;;48.65;35.83;;;3.70;99.90;;;;;;2076064;28;20033;-79
2021/03/24 03:31:02;;;;;;;46.78;34.38;;;3.70;99.90;;;;;;2075016;28;20029;-79
2021/03/24 03:32:05;;;;;;;42.55;33.10;;;3.70;99.90;;;;;;2080739;28;20036;-79
2021/03/24 03:33:11;;;;;;;48.45;36.58;;;3.70;99.90;;;;;;2080503;28;20454;-78
2021/03/24 03:34:14;;;;;;;43.45;33.92;;;3.70;99.90;;;;;;2076399;28;20033;-78
2021/03/24 03:35:22;;;;;;;42.65;31.17;;;3.70;99.90;;;;;;2086126;28;20033;-79
2021/03/24 03:36:24;;;;;;;47.92;34.55;;;3.70;99.90;;;;;;2083954;28;20117;-79
2021/03/24 03:37:26;;;;;;;43.92;31.80;;;3.70;99.90;;;;;;2086763;28;20025;-79
2021/03/24 03:38:30;;;;;;;46.17;33.03;;;3.70;99.90;;;;;;2092865;28;20035;-78
2021/03/24 03:39:31;;;;;;;42.13;30.48;;;3.70;99.90;;;;;;2079553;28;20061;-78
2021/03/24 03:40:35;;;;;;;48.38;35.60;;;3.70;99.90;;;;;;2080847;28;20412;-78
2021/03/24 03:41:36;;;;;;;51.72;36.53;;;3.70;99.90;;;;;;2073492;28;20272;-78
2021/03/24 03:42:38;;;;;;;46.03;33.30;;;3.70;99.90;;;;;;2080766;28;20029;-78
2021/03/24 03:43:45;;;;;;;50.22;34.05;;;3.70;99.90;;;;;;2080440;28;20441;-78
2021/03/24 03:44:47;;;;;;;44.22;32.83;;;3.70;99.90;;;;;;2088870;28;20031;-78
2021/03/24 03:45:50;;;;;;;45.03;35.03;;;3.70;99.90;;;;;;2080987;28;20079;-79
2021/03/24 03:46:54;;;;;;;43.75;32.42;;;3.70;99.90;;;;;;2080510;28;20029;-80
2021/03/24 03:47:55;;;;;;;47.47;33.55;;;3.70;99.90;;;;;;2079987;28;20030;-79
2021/03/24 03:48:56;;;;;;;42.28;31.40;;;3.60;99.90;;;;;;2076535;28;20024;-80
2021/03/24 03:49:56;;;;;;;42.28;32.00;;;3.60;99.90;;;;;;2082430;28;20355;-80
2021/03/24 03:51:03;;;;;;;44.83;32.33;;;3.60;99.90;;;;;;2086535;28;20025;-79
2021/03/24 03:52:43;;;;;;;45.08;32.70;;;3.60;99.90;;;;;;2086287;28;20661;-78
2021/03/24 03:53:57;;;;;;;40.60;31.15;;;3.60;99.90;;;;;;2087062;28;20525;-80
2021/03/24 03:55:19;;;;;;;44.88;34.10;;;3.50;99.90;;;;;;2082524;28;20029;-78
2021/03/24 03:56:33;;;;;;;43.58;30.92;;;3.50;99.90;;;;;;2078754;28;20063;-79
2021/03/24 03:57:40;;;;;;;45.03;34.25;;;3.50;99.90;;;;;;2085994;28;20025;-78
2021/03/24 03:58:48;;;;;;;48.55;34.63;;;3.50;99.90;;;;;;2087879;28;20025;-78
2021/03/24 04:00:16;;;;;;;49.63;34.40;;;3.50;99.90;;;;;;2074899;28;20079;-78
2021/03/24 04:01:22;;;;;;;39.72;30.77;;;3.50;99.90;;;;;;2081838;28;20078;-78
2021/03/24 04:02:31;;;;;;;42.15;31.38;;;3.50;99.90;;;;;;2076108;28;20025;-78
2021/03/24 04:03:39;;;;;;;45.75;33.65;;;3.50;99.90;;;;;;2072523;28;20022;-78
2021/03/24 04:04:44;;;;;;;46.03;33.58;;;3.40;99.90;;;;;;2080052;28;20025;-78
2021/03/24 04:05:52;;;;;;;41.08;31.08;;;3.40;99.90;;;;;;2073671;28;20022;-78
2021/03/24 04:07:32;;;;;;;53.58;36.35;;;3.40;99.90;;;;;;2073448;28;20029;-79
2021/03/24 04:08:35;;;;;;;47.47;33.75;;;3.40;99.90;;;;;;2081144;28;20382;-79
2021/03/24 04:09:39;;;;;;;43.33;31.20;;;3.40;99.90;;;;;;2083246;28;20076;-78
2021/03/24 04:10:46;;;;;;;43.63;32.53;;;3.40;99.90;;;;;;2086409;28;20361;-79
2021/03/24 04:11:51;;;;;;;43.75;31.55;;;3.40;99.90;;;;;;2087072;28;20187;-79
2021/03/24 04:12:54;;;;;;;44.17;31.70;;;3.40;99.90;;;;;;2077737;28;20465;-78
2021/03/24 04:13:56;;;;;;;50.35;33.92;;;3.40;99.90;;;;;;2075342;28;20079;-79
2021/03/24 04:14:57;;;;;;;45.42;33.97;;;3.40;99.90;;;;;;2079293;28;20030;-78
2021/03/24 04:16:00;;;;;;;42.72;31.25;;;3.40;99.90;;;;;;2078847;28;20025;-78
2021/03/24 04:17:02;;;;;;;43.15;32.28;;;3.40;99.90;;;;;;2073675;28;20030;-77
2021/03/24 04:18:19;;;;;;;42.95;32.30;;;3.40;99.90;;;;;;2079207;28;20417;-78
2021/03/24 04:19:29;;;;;;;45.80;34.20;;;3.40;99.90;;;;;;2079535;28;20026;-78
2021/03/24 04:20:32;;;;;;;38.17;30.27;;;3.40;99.90;;;;;;2080065;28;20034;-79
2021/03/24 04:21:36;;;;;;;36.22;27.40;;;3.40;99.90;;;;;;2077860;28;20034;-79
2021/03/24 04:22:37;;;;;;;41.22;29.55;;;3.40;99.90;;;;;;2074427;28;20021;-79
2021/03/24 04:23:43;;;;;;;44.10;31.73;;;3.30;99.90;;;;;;2078903;28;20594;-79
2021/03/24 04:24:51;;;;;;;43.00;31.02;;;3.40;99.90;;;;;;2082235;28;20116;-78
2021/03/24 04:25:58;;;;;;;50.17;34.47;;;3.30;99.90;;;;;;2078836;28;20029;-78
2021/03/24 04:27:01;;;;;;;44.92;33.72;;;3.30;99.90;;;;;;2079514;28;20512;-78
2021/03/24 04:28:04;;;;;;;43.60;32.70;;;3.30;99.90;;;;;;2078842;28;20029;-79
2021/03/24 04:29:11;;;;;;;41.90;30.90;;;3.30;99.90;;;;;;2083702;28;20021;-78
2021/03/24 04:30:15;;;;;;;41.05;30.50;;;3.30;99.90;;;;;;2082437;28;20199;-78
2021/03/24 04:31:19;;;;;;;46.63;33.03;;;3.30;99.90;;;;;;2078769;28;20520;-79
2021/03/24 04:32:20;;;;;;;42.40;31.48;;;3.30;99.90;;;;;;2080690;28;20493;-79
2021/03/24 04:33:20;;;;;;;38.97;30.77;;;3.30;99.90;;;;;;2081486;28;20120;-78
2021/03/24 04:34:22;;;;;;;42.08;31.50;;;3.30;99.90;;;;;;2088660;28;20033;-79
2021/03/24 04:35:23;;;;;;;44.03;32.03;;;3.30;99.90;;;;;;2077716;28;20386;-79
2021/03/24 04:36:41;;;;;;;44.13;31.55;;;3.30;99.90;;;;;;2081145;28;20093;-78
2021/03/24 04:37:49;;;;;;;44.03;33.35;;;3.30;99.90;;;;;;2077400;28;20092;-79
2021/03/24 04:38:54;;;;;;;46.53;33.90;;;3.30;99.90;;;;;;2078156;28;20022;-78
2021/03/24 04:40:06;;;;;;;46.33;32.53;;;3.30;99.90;;;;;;2088757;28;20056;-79
2021/03/24 04:41:12;;;;;;;40.33;30.38;;;3.20;99.90;;;;;;2089293;28;20028;-79
2021/03/24 04:42:18;;;;;;;42.42;30.95;;;3.20;99.90;;;;;;2081141;28;20017;-79
2021/03/24 04:43:27;;;;;;;40.88;29.27;;;3.20;99.90;;;;;;2080459;28;20079;-81
2021/03/24 04:44:31;;;;;;;38.33;28.88;;;3.30;99.90;;;;;;2079634;28;20025;-80
2021/03/24 04:45:50;;;;;;;38.75;29.67;;;3.20;99.90;;;;;;2081627;28;20022;-80
2021/03/24 04:47:00;;;;;;;42.92;31.20;;;3.20;99.90;;;;;;2083934;28;20066;-80
2021/03/24 04:48:05;;;;;;;39.47;29.30;;;3.20;99.90;;;;;;2082197;28;20067;-81
2021/03/24 04:49:12;;;;;;;43.92;31.20;;;3.20;99.90;;;;;;2078108;28;20030;-79
2021/03/24 04:50:22;;;;;;;40.30;28.73;;;3.20;99.90;;;;;;2077320;28;20025;-79
2021/03/24 04:51:27;;;;;;;51.05;33.42;;;3.20;99.90;;;;;;2079740;28;20068;-80
2021/03/24 04:52:33;;;;;;;42.33;29.85;;;3.20;99.90;;;;;;2078033;28;20033;-80
2021/03/24 04:53:43;;;;;;;39.28;28.60;;;3.20;99.90;;;;;;2085523;28;20532;-80
2021/03/24 04:54:45;;;;;;;41.25;29.13;;;3.20;99.90;;;;;;2081945;28;20033;-78
2021/03/24 04:55:47;;;;;;;42.13;30.33;;;3.20;99.90;;;;;;2076808;28;20052;-79
2021/03/24 04:56:52;;;;;;;39.42;30.80;;;3.20;99.90;;;;;;2081987;28;20049;-80
2021/03/24 04:57:58;;;;;;;42.40;30.27;;;3.20;99.90;;;;;;2087297;28;20029;-80
2021/03/24 04:58:59;;;;;;;47.22;31.45;;;3.20;99.90;;;;;;2076151;28;20096;-80
2021/03/24 05:00:27;;;;;;;38.70;30.48;;;3.20;99.90;;;;;;2084378;28;20060;-80
2021/03/24 05:01:57;;;;;;;42.53;31.50;;;3.10;99.90;;;;;;2087202;28;20028;-81
2021/03/24 05:03:05;;;;;;;37.90;28.05;;;3.10;99.90;;;;;;2084313;28;20068;-80
2021/03/24 05:04:15;;;;;;;36.03;27.25;;;3.10;99.90;;;;;;2081668;28;20114;-80
2021/03/24 05:05:22;;;;;;;37.40;30.13;;;3.10;99.90;;;;;;2080726;28;20029;-81
2021/03/24 05:06:34;;;;;;;35.58;26.73;;;3.10;99.90;;;;;;2076134;28;20025;-80
2021/03/24 05:07:49;;;;;;;40.95;29.42;;;3.10;99.90;;;;;;2080059;28;20501;-80
2021/03/24 05:08:50;;;;;;;41.15;29.02;;;3.10;99.90;;;;;;2077682;28;20026;-80
2021/03/24 05:09:50;;;;;;;36.97;26.08;;;3.10;99.90;;;;;;2081596;28;20084;-80
2021/03/24 05:10:57;;;;;;;37.22;28.52;;;3.10;99.90;;;;;;2081253;28;20036;-80
2021/03/24 05:12:09;;;;;;;37.67;27.98;;;3.10;99.90;;;;;;2083708;28;20068;-80
2021/03/24 05:13:22;;;;;;;39.42;29.48;;;3.10;99.90;;;;;;2084539;28;20043;-80
2021/03/24 05:14:49;;;;;;;44.53;30.35;;;3.10;99.90;;;;;;2077506;28;20309;-79
2021/03/24 05:16:05;;;;;;;37.72;28.38;;;3.00;99.90;;;;;;2076645;28;20043;-79
2021/03/24 05:17:22;;;;;;;33.67;25.10;;;3.00;99.90;;;;;;2078683;28;20029;-79
2021/03/24 05:18:22;;;;;;;41.13;28.60;;;3.00;99.90;;;;;;2077047;28;20521;-79
2021/03/24 05:19:26;;;;;;;45.67;31.10;;;3.00;99.90;;;;;;2077605;28;20037;-79
2021/03/24 05:20:39;;;;;;;42.17;30.35;;;3.00;99.90;;;;;;2080443;28;20379;-80
2021/03/24 05:21:45;;;;;;;36.15;27.63;;;3.00;99.90;;;;;;2081095;28;20025;-80
2021/03/24 05:22:46;;;;;;;38.67;27.75;;;3.00;99.90;;;;;;2083090;28;20014;-79
2021/03/24 05:23:54;;;;;;;39.17;29.73;;;3.00;99.90;;;;;;2081033;28;20025;-78
2021/03/24 05:25:12;;;;;;;41.55;28.17;;;3.00;99.90;;;;;;2076960;28;20033;-79
2021/03/24 05:26:32;;;;;;;38.22;27.55;;;3.00;99.90;;;;;;2077857;28;20278;-80
2021/03/24 05:27:43;;;;;;;38.72;29.25;;;3.00;99.90;;;;;;2079144;28;20120;-79
2021/03/24 05:28:48;;;;;;;37.65;28.10;;;3.00;99.90;;;;;;2081244;28;20052;-80
2021/03/24 05:29:55;;;;;;;37.88;28.65;;;3.00;99.90;;;;;;2080590;28;20057;-80
2021/03/24 05:31:04;;;;;;;38.75;28.42;;;3.00;99.90;;;;;;2081373;28;20128;-80
2021/03/24 05:32:11;;;;;;;39.17;28.75;;;3.00;99.90;;;;;;2081745;28;20034;-80
2021/03/24 05:33:19;;;;;;;34.25;26.25;;;3.00;99.90;;;;;;2089341;28;20028;-80
2021/03/24 05:34:33;;;;;;;33.67;24.95;;;3.00;99.90;;;;;;2082567;28;20240;-80
2021/03/24 05:36:00;;;;;;;36.72;27.23;;;3.00;99.90;;;;;;2076760;28;20013;-79
2021/03/24 05:37:06;;;;;;;34.20;26.80;;;3.00;99.90;;;;;;2077794;28;20509;-80
2021/03/24 05:38:33;;;;;;;39.03;27.08;;;2.90;99.90;;;;;;2078602;28;20529;-80